sensor_id;sensor_type;location;lat;lon;timestamp;temperature;humidity
584;HTU21D;27024;54.068;12.116;2023-03-04T00:01:20;3.54;118.58
584;HTU21D;27024;54.068;12.116;2023-03-04T00:03:47;3.44;118.53
584;HTU21D;27024;54.068;12.116;2023-03-04T00:06:14;3.43;118.99
584;HTU21D;27024;54.068;12.116;2023-03-04T00:08:41;3.49;118.98
584;HTU21D;27024;54.068;12.116;2023-03-04T00:11:08;3.57;118.63
584;HTU21D;27024;54.068;12.116;2023-03-04T00:13:35;3.53;118.59
584;HTU21D;27024;54.068;12.116;2023-03-04T00:16:01;3.59;118.56
584;HTU21D;27024;54.068;12.116;2023-03-04T00:18:29;3.54;118.59
584;HTU21D;27024;54.068;12.116;2023-03-04T00:20:56;3.55;118.70
584;HTU21D;27024;54.068;12.116;2023-03-04T00:23:23;3.62;118.65
584;HTU21D;27024;54.068;12.116;2023-03-04T00:25:50;3.70;118.41
584;HTU21D;27024;54.068;12.116;2023-03-04T00:28:18;3.65;118.47
584;HTU21D;27024;54.068;12.116;2023-03-04T00:30:44;3.73;118.56
584;HTU21D;27024;54.068;12.116;2023-03-04T00:33:11;3.79;118.12
584;HTU21D;27024;54.068;12.116;2023-03-04T00:35:39;3.73;118.05
584;HTU21D;27024;54.068;12.116;2023-03-04T00:38:07;3.68;118.35
584;HTU21D;27024;54.068;12.116;2023-03-04T00:40:34;3.64;118.71
584;HTU21D;27024;54.068;12.116;2023-03-04T00:43:01;3.68;118.46
584;HTU21D;27024;54.068;12.116;2023-03-04T00:45:29;3.64;118.50
584;HTU21D;27024;54.068;12.116;2023-03-04T00:47:56;3.58;118.90
584;HTU21D;27024;54.068;12.116;2023-03-04T00:50:22;3.54;118.99
584;HTU21D;27024;54.068;12.116;2023-03-04T00:52:49;3.60;118.99
584;HTU21D;27024;54.068;12.116;2023-03-04T00:55:16;3.68;118.85
584;HTU21D;27024;54.068;12.116;2023-03-04T00:57:43;3.67;118.76
584;HTU21D;27024;54.068;12.116;2023-03-04T01:00:10;3.69;118.60
584;HTU21D;27024;54.068;12.116;2023-03-04T01:02:37;3.75;118.45
584;HTU21D;27024;54.068;12.116;2023-03-04T01:05:05;3.75;118.44
584;HTU21D;27024;54.068;12.116;2023-03-04T01:07:32;3.86;118.76
584;HTU21D;27024;54.068;12.116;2023-03-04T01:09:59;3.99;118.33
584;HTU21D;27024;54.068;12.116;2023-03-04T01:12:26;4.04;117.92
584;HTU21D;27024;54.068;12.116;2023-03-04T01:14:53;4.16;117.89
584;HTU21D;27024;54.068;12.116;2023-03-04T01:17:20;4.15;117.74
584;HTU21D;27024;54.068;12.116;2023-03-04T01:19:47;4.20;117.46
584;HTU21D;27024;54.068;12.116;2023-03-04T01:22:14;4.29;117.28
584;HTU21D;27024;54.068;12.116;2023-03-04T01:24:42;4.33;116.87
584;HTU21D;27024;54.068;12.116;2023-03-04T01:27:09;4.30;116.93
584;HTU21D;27024;54.068;12.116;2023-03-04T01:29:36;4.33;116.87
584;HTU21D;27024;54.068;12.116;2023-03-04T01:32:04;4.41;116.67
584;HTU21D;27024;54.068;12.116;2023-03-04T01:34:31;4.47;116.36
584;HTU21D;27024;54.068;12.116;2023-03-04T01:36:57;4.58;115.98
584;HTU21D;27024;54.068;12.116;2023-03-04T01:39:24;4.62;115.59
584;HTU21D;27024;54.068;12.116;2023-03-04T01:41:51;4.59;116.02
584;HTU21D;27024;54.068;12.116;2023-03-04T01:44:18;4.66;115.77
584;HTU21D;27024;54.068;12.116;2023-03-04T01:46:49;4.66;115.58
584;HTU21D;27024;54.068;12.116;2023-03-04T01:49:17;4.81;115.25
584;HTU21D;27024;54.068;12.116;2023-03-04T01:51:48;4.79;115.35
584;HTU21D;27024;54.068;12.116;2023-03-04T01:54:16;4.84;115.11
584;HTU21D;27024;54.068;12.116;2023-03-04T01:56:44;4.88;114.93
584;HTU21D;27024;54.068;12.116;2023-03-04T01:59:25;4.96;114.61
584;HTU21D;27024;54.068;12.116;2023-03-04T02:01:57;4.97;114.59
584;HTU21D;27024;54.068;12.116;2023-03-04T02:04:27;5.05;114.17
584;HTU21D;27024;54.068;12.116;2023-03-04T02:06:56;5.11;113.68
584;HTU21D;27024;54.068;12.116;2023-03-04T02:09:23;5.10;114.20
584;HTU21D;27024;54.068;12.116;2023-03-04T02:11:51;5.21;113.14
584;HTU21D;27024;54.068;12.116;2023-03-04T02:14:18;5.04;114.41
584;HTU21D;27024;54.068;12.116;2023-03-04T02:16:47;5.20;113.45
584;HTU21D;27024;54.068;12.116;2023-03-04T02:19:47;5.20;113.79
584;HTU21D;27024;54.068;12.116;2023-03-04T02:22:16;5.21;113.72
584;HTU21D;27024;54.068;12.116;2023-03-04T02:24:54;5.24;113.64
584;HTU21D;27024;54.068;12.116;2023-03-04T02:27:22;5.19;113.47
584;HTU21D;27024;54.068;12.116;2023-03-04T02:29:48;5.18;113.82
584;HTU21D;27024;54.068;12.116;2023-03-04T02:32:15;5.18;113.47
584;HTU21D;27024;54.068;12.116;2023-03-04T02:34:48;5.19;113.60
584;HTU21D;27024;54.068;12.116;2023-03-04T02:37:17;5.13;113.79
584;HTU21D;27024;54.068;12.116;2023-03-04T02:39:46;5.19;113.74
584;HTU21D;27024;54.068;12.116;2023-03-04T02:42:15;5.22;113.74
584;HTU21D;27024;54.068;12.116;2023-03-04T02:44:44;5.24;113.64
584;HTU21D;27024;54.068;12.116;2023-03-04T02:47:16;5.24;113.39
584;HTU21D;27024;54.068;12.116;2023-03-04T02:49:46;5.24;113.50
584;HTU21D;27024;54.068;12.116;2023-03-04T02:52:24;5.30;113.06
584;HTU21D;27024;54.068;12.116;2023-03-04T02:54:51;5.30;112.91
584;HTU21D;27024;54.068;12.116;2023-03-04T02:57:17;5.25;113.16
584;HTU21D;27024;54.068;12.116;2023-03-04T02:59:44;5.26;113.08
584;HTU21D;27024;54.068;12.116;2023-03-04T03:02:11;5.21;113.43
584;HTU21D;27024;54.068;12.116;2023-03-04T03:04:39;5.28;113.19
584;HTU21D;27024;54.068;12.116;2023-03-04T03:07:06;5.25;113.41
584;HTU21D;27024;54.068;12.116;2023-03-04T03:09:33;5.30;113.17
584;HTU21D;27024;54.068;12.116;2023-03-04T03:12:00;5.30;112.96
584;HTU21D;27024;54.068;12.116;2023-03-04T03:14:27;5.22;113.32
584;HTU21D;27024;54.068;12.116;2023-03-04T03:16:54;5.32;113.35
584;HTU21D;27024;54.068;12.116;2023-03-04T03:19:20;5.20;113.90
584;HTU21D;27024;54.068;12.116;2023-03-04T03:21:47;5.26;113.46
584;HTU21D;27024;54.068;12.116;2023-03-04T03:24:15;5.19;113.98
584;HTU21D;27024;54.068;12.116;2023-03-04T03:26:42;5.22;113.95
584;HTU21D;27024;54.068;12.116;2023-03-04T03:29:09;5.22;113.96
584;HTU21D;27024;54.068;12.116;2023-03-04T03:31:35;5.25;113.43
584;HTU21D;27024;54.068;12.116;2023-03-04T03:34:02;5.31;113.25
584;HTU21D;27024;54.068;12.116;2023-03-04T03:36:29;5.33;112.97
584;HTU21D;27024;54.068;12.116;2023-03-04T03:38:55;5.31;113.09
584;HTU21D;27024;54.068;12.116;2023-03-04T03:41:22;5.34;113.16
584;HTU21D;27024;54.068;12.116;2023-03-04T03:43:49;5.19;113.83
584;HTU21D;27024;54.068;12.116;2023-03-04T03:46:15;5.21;113.85
584;HTU21D;27024;54.068;12.116;2023-03-04T03:48:42;5.15;114.12
584;HTU21D;27024;54.068;12.116;2023-03-04T03:51:09;5.25;113.71
584;HTU21D;27024;54.068;12.116;2023-03-04T03:53:36;5.28;113.00
584;HTU21D;27024;54.068;12.116;2023-03-04T03:56:03;5.13;113.47
584;HTU21D;27024;54.068;12.116;2023-03-04T03:58:30;5.16;113.49
584;HTU21D;27024;54.068;12.116;2023-03-04T04:00:56;5.16;113.20
584;HTU21D;27024;54.068;12.116;2023-03-04T04:03:24;5.26;112.42
584;HTU21D;27024;54.068;12.116;2023-03-04T04:05:51;5.22;112.12
584;HTU21D;27024;54.068;12.116;2023-03-04T04:08:18;5.35;111.15
584;HTU21D;27024;54.068;12.116;2023-03-04T04:10:45;5.37;111.26
584;HTU21D;27024;54.068;12.116;2023-03-04T04:13:12;5.24;111.67
584;HTU21D;27024;54.068;12.116;2023-03-04T04:15:39;5.26;111.45
584;HTU21D;27024;54.068;12.116;2023-03-04T04:18:06;5.36;110.36
584;HTU21D;27024;54.068;12.116;2023-03-04T04:20:33;5.25;110.78
584;HTU21D;27024;54.068;12.116;2023-03-04T04:23:01;5.27;110.68
584;HTU21D;27024;54.068;12.116;2023-03-04T04:25:28;5.26;109.88
584;HTU21D;27024;54.068;12.116;2023-03-04T04:27:57;5.33;109.33
584;HTU21D;27024;54.068;12.116;2023-03-04T04:30:25;5.28;108.63
584;HTU21D;27024;54.068;12.116;2023-03-04T04:32:52;5.33;108.72
584;HTU21D;27024;54.068;12.116;2023-03-04T04:35:19;5.30;108.90
584;HTU21D;27024;54.068;12.116;2023-03-04T04:37:46;5.37;106.93
584;HTU21D;27024;54.068;12.116;2023-03-04T04:40:13;5.32;106.92
584;HTU21D;27024;54.068;12.116;2023-03-04T04:42:39;5.34;106.45
584;HTU21D;27024;54.068;12.116;2023-03-04T04:45:07;5.19;107.54
584;HTU21D;27024;54.068;12.116;2023-03-04T04:47:34;5.33;105.66
584;HTU21D;27024;54.068;12.116;2023-03-04T04:50:00;5.19;105.92
584;HTU21D;27024;54.068;12.116;2023-03-04T04:52:27;5.23;105.80
584;HTU21D;27024;54.068;12.116;2023-03-04T04:54:54;5.26;104.34
584;HTU21D;27024;54.068;12.116;2023-03-04T04:57:21;5.11;104.79
584;HTU21D;27024;54.068;12.116;2023-03-04T04:59:48;5.06;104.25
584;HTU21D;27024;54.068;12.116;2023-03-04T05:02:15;5.05;104.04
584;HTU21D;27024;54.068;12.116;2023-03-04T05:04:41;5.00;104.07
584;HTU21D;27024;54.068;12.116;2023-03-04T05:07:08;5.02;104.12
584;HTU21D;27024;54.068;12.116;2023-03-04T05:09:35;4.95;104.89
584;HTU21D;27024;54.068;12.116;2023-03-04T05:12:02;4.92;104.89
584;HTU21D;27024;54.068;12.116;2023-03-04T05:14:28;4.86;105.21
584;HTU21D;27024;54.068;12.116;2023-03-04T05:16:55;4.65;106.64
584;HTU21D;27024;54.068;12.116;2023-03-04T05:19:22;4.62;106.99
584;HTU21D;27024;54.068;12.116;2023-03-04T05:21:49;4.54;107.51
584;HTU21D;27024;54.068;12.116;2023-03-04T05:24:16;4.48;108.53
584;HTU21D;27024;54.068;12.116;2023-03-04T05:26:43;4.35;108.94
584;HTU21D;27024;54.068;12.116;2023-03-04T05:29:09;4.44;109.07
584;HTU21D;27024;54.068;12.116;2023-03-04T05:31:36;4.29;109.42
584;HTU21D;27024;54.068;12.116;2023-03-04T05:34:03;4.23;109.81
584;HTU21D;27024;54.068;12.116;2023-03-04T05:36:30;4.20;110.27
584;HTU21D;27024;54.068;12.116;2023-03-04T05:38:57;4.15;110.73
584;HTU21D;27024;54.068;12.116;2023-03-04T05:41:24;4.30;111.20
584;HTU21D;27024;54.068;12.116;2023-03-04T05:43:51;4.19;110.46
584;HTU21D;27024;54.068;12.116;2023-03-04T05:46:18;4.17;110.13
584;HTU21D;27024;54.068;12.116;2023-03-04T05:48:52;4.12;109.76
584;HTU21D;27024;54.068;12.116;2023-03-04T05:51:19;4.20;109.44
584;HTU21D;27024;54.068;12.116;2023-03-04T05:53:46;4.06;110.33
584;HTU21D;27024;54.068;12.116;2023-03-04T05:56:15;4.26;109.21
584;HTU21D;27024;54.068;12.116;2023-03-04T05:58:43;4.27;109.07
584;HTU21D;27024;54.068;12.116;2023-03-04T06:01:10;4.24;108.95
584;HTU21D;27024;54.068;12.116;2023-03-04T06:03:36;4.24;108.91
584;HTU21D;27024;54.068;12.116;2023-03-04T06:06:04;4.31;108.44
584;HTU21D;27024;54.068;12.116;2023-03-04T06:08:31;4.34;108.26
584;HTU21D;27024;54.068;12.116;2023-03-04T06:10:58;4.38;108.05
584;HTU21D;27024;54.068;12.116;2023-03-04T06:13:25;4.41;107.32
584;HTU21D;27024;54.068;12.116;2023-03-04T06:15:54;4.54;107.13
584;HTU21D;27024;54.068;12.116;2023-03-04T06:18:22;4.54;106.93
584;HTU21D;27024;54.068;12.116;2023-03-04T06:20:49;4.48;107.48
584;HTU21D;27024;54.068;12.116;2023-03-04T06:23:15;4.52;107.43
584;HTU21D;27024;54.068;12.116;2023-03-04T06:25:42;4.50;107.38
584;HTU21D;27024;54.068;12.116;2023-03-04T06:28:09;4.56;107.14
584;HTU21D;27024;54.068;12.116;2023-03-04T06:30:36;4.59;106.75
584;HTU21D;27024;54.068;12.116;2023-03-04T06:33:03;4.44;107.49
584;HTU21D;27024;54.068;12.116;2023-03-04T06:35:30;4.59;106.41
584;HTU21D;27024;54.068;12.116;2023-03-04T06:37:57;4.56;106.56
584;HTU21D;27024;54.068;12.116;2023-03-04T06:40:23;4.56;106.75
584;HTU21D;27024;54.068;12.116;2023-03-04T06:42:50;4.58;107.01
584;HTU21D;27024;54.068;12.116;2023-03-04T06:45:17;4.59;106.66
584;HTU21D;27024;54.068;12.116;2023-03-04T06:47:44;4.71;106.85
584;HTU21D;27024;54.068;12.116;2023-03-04T06:50:12;4.65;106.53
584;HTU21D;27024;54.068;12.116;2023-03-04T06:52:39;4.60;106.59
584;HTU21D;27024;54.068;12.116;2023-03-04T06:55:07;4.64;106.98
584;HTU21D;27024;54.068;12.116;2023-03-04T06:57:34;4.75;106.50
584;HTU21D;27024;54.068;12.116;2023-03-04T07:00:01;4.71;106.56
584;HTU21D;27024;54.068;12.116;2023-03-04T07:02:28;4.78;106.07
584;HTU21D;27024;54.068;12.116;2023-03-04T07:04:55;4.73;106.47
584;HTU21D;27024;54.068;12.116;2023-03-04T07:07:22;4.67;106.76
584;HTU21D;27024;54.068;12.116;2023-03-04T07:09:51;4.80;105.69
584;HTU21D;27024;54.068;12.116;2023-03-04T07:12:17;4.87;105.27
584;HTU21D;27024;54.068;12.116;2023-03-04T07:14:44;4.88;105.63
584;HTU21D;27024;54.068;12.116;2023-03-04T07:17:11;4.91;105.62
584;HTU21D;27024;54.068;12.116;2023-03-04T07:19:38;5.01;105.42
584;HTU21D;27024;54.068;12.116;2023-03-04T07:22:05;5.03;104.70
584;HTU21D;27024;54.068;12.116;2023-03-04T07:24:32;4.95;105.28
584;HTU21D;27024;54.068;12.116;2023-03-04T07:26:59;5.03;105.70
584;HTU21D;27024;54.068;12.116;2023-03-04T07:29:25;5.05;105.37
584;HTU21D;27024;54.068;12.116;2023-03-04T07:31:52;5.02;105.02
584;HTU21D;27024;54.068;12.116;2023-03-04T07:34:19;5.11;104.71
584;HTU21D;27024;54.068;12.116;2023-03-04T07:36:46;5.07;104.55
584;HTU21D;27024;54.068;12.116;2023-03-04T07:39:13;5.17;104.61
584;HTU21D;27024;54.068;12.116;2023-03-04T07:41:40;5.22;104.28
584;HTU21D;27024;54.068;12.116;2023-03-04T07:44:09;5.08;104.62
584;HTU21D;27024;54.068;12.116;2023-03-04T07:46:38;5.13;104.68
584;HTU21D;27024;54.068;12.116;2023-03-04T07:49:05;5.22;105.50
584;HTU21D;27024;54.068;12.116;2023-03-04T07:51:32;5.35;104.05
584;HTU21D;27024;54.068;12.116;2023-03-04T07:54:00;5.34;103.41
584;HTU21D;27024;54.068;12.116;2023-03-04T07:56:30;5.32;103.22
584;HTU21D;27024;54.068;12.116;2023-03-04T07:58:59;5.40;102.94
584;HTU21D;27024;54.068;12.116;2023-03-04T08:01:31;5.42;102.44
584;HTU21D;27024;54.068;12.116;2023-03-04T08:03:59;5.47;102.66
584;HTU21D;27024;54.068;12.116;2023-03-04T08:06:27;5.34;104.21
584;HTU21D;27024;54.068;12.116;2023-03-04T08:08:57;5.32;103.21
584;HTU21D;27024;54.068;12.116;2023-03-04T08:11:25;5.47;102.43
584;HTU21D;27024;54.068;12.116;2023-03-04T08:13:52;5.50;102.54
584;HTU21D;27024;54.068;12.116;2023-03-04T08:16:21;5.30;102.79
584;HTU21D;27024;54.068;12.116;2023-03-04T08:18:51;5.40;102.44
584;HTU21D;27024;54.068;12.116;2023-03-04T08:21:20;5.37;102.89
584;HTU21D;27024;54.068;12.116;2023-03-04T08:23:48;5.34;102.83
584;HTU21D;27024;54.068;12.116;2023-03-04T08:26:18;5.37;103.22
584;HTU21D;27024;54.068;12.116;2023-03-04T08:28:46;5.27;102.72
584;HTU21D;27024;54.068;12.116;2023-03-04T08:31:14;5.27;102.70
584;HTU21D;27024;54.068;12.116;2023-03-04T08:33:42;5.39;102.84
584;HTU21D;27024;54.068;12.116;2023-03-04T08:36:10;5.35;103.28
584;HTU21D;27024;54.068;12.116;2023-03-04T08:38:37;5.40;103.89
584;HTU21D;27024;54.068;12.116;2023-03-04T08:41:04;5.26;103.26
584;HTU21D;27024;54.068;12.116;2023-03-04T08:43:32;5.22;102.41
584;HTU21D;27024;54.068;12.116;2023-03-04T08:45:59;5.27;102.51
584;HTU21D;27024;54.068;12.116;2023-03-04T08:48:26;5.20;102.60
584;HTU21D;27024;54.068;12.116;2023-03-04T08:50:53;5.24;103.16
584;HTU21D;27024;54.068;12.116;2023-03-04T08:53:20;5.36;102.76
584;HTU21D;27024;54.068;12.116;2023-03-04T08:55:47;5.36;102.00
584;HTU21D;27024;54.068;12.116;2023-03-04T08:58:14;5.22;101.98
584;HTU21D;27024;54.068;12.116;2023-03-04T09:00:46;5.25;101.71
584;HTU21D;27024;54.068;12.116;2023-03-04T09:03:15;5.28;102.15
584;HTU21D;27024;54.068;12.116;2023-03-04T09:05:44;5.28;102.44
584;HTU21D;27024;54.068;12.116;2023-03-04T09:08:11;5.34;102.36
584;HTU21D;27024;54.068;12.116;2023-03-04T09:10:38;5.42;102.32
584;HTU21D;27024;54.068;12.116;2023-03-04T09:13:05;5.34;101.51
584;HTU21D;27024;54.068;12.116;2023-03-04T09:15:33;5.32;101.08
584;HTU21D;27024;54.068;12.116;2023-03-04T09:18:03;5.35;101.03
584;HTU21D;27024;54.068;12.116;2023-03-04T09:20:31;5.32;100.94
584;HTU21D;27024;54.068;12.116;2023-03-04T09:22:58;5.27;101.32
584;HTU21D;27024;54.068;12.116;2023-03-04T09:25:25;5.24;101.84
584;HTU21D;27024;54.068;12.116;2023-03-04T09:27:52;5.38;102.02
584;HTU21D;27024;54.068;12.116;2023-03-04T09:30:19;5.32;100.79
584;HTU21D;27024;54.068;12.116;2023-03-04T09:32:46;5.32;101.74
584;HTU21D;27024;54.068;12.116;2023-03-04T09:35:13;5.40;101.83
584;HTU21D;27024;54.068;12.116;2023-03-04T09:37:40;5.40;100.45
584;HTU21D;27024;54.068;12.116;2023-03-04T09:40:08;5.55;100.95
584;HTU21D;27024;54.068;12.116;2023-03-04T09:42:44;5.48;100.06
584;HTU21D;27024;54.068;12.116;2023-03-04T09:45:18;5.61;99.71
584;HTU21D;27024;54.068;12.116;2023-03-04T09:47:47;5.53;100.25
584;HTU21D;27024;54.068;12.116;2023-03-04T09:50:16;5.82;99.99
584;HTU21D;27024;54.068;12.116;2023-03-04T10:00:55;5.66;99.51
584;HTU21D;27024;54.068;12.116;2023-03-04T10:03:46;5.67;98.85
584;HTU21D;27024;54.068;12.116;2023-03-04T10:06:16;5.81;98.65
584;HTU21D;27024;54.068;12.116;2023-03-04T10:08:57;5.85;99.62
584;HTU21D;27024;54.068;12.116;2023-03-04T10:11:39;5.81;98.98
584;HTU21D;27024;54.068;12.116;2023-03-04T10:17:04;6.01;96.84
584;HTU21D;27024;54.068;12.116;2023-03-04T10:19:58;5.72;98.14
584;HTU21D;27024;54.068;12.116;2023-03-04T10:22:47;8.36;87.61
584;HTU21D;27024;54.068;12.116;2023-03-04T10:27:53;6.59;96.85
584;HTU21D;27024;54.068;12.116;2023-03-04T10:30:45;6.85;95.06
584;HTU21D;27024;54.068;12.116;2023-03-04T10:33:19;6.82;93.79
584;HTU21D;27024;54.068;12.116;2023-03-04T10:35:55;7.10;94.43
584;HTU21D;27024;54.068;12.116;2023-03-04T10:38:24;7.01;92.21
584;HTU21D;27024;54.068;12.116;2023-03-04T10:40:51;7.11;93.67
584;HTU21D;27024;54.068;12.116;2023-03-04T10:43:19;7.38;91.56
584;HTU21D;27024;54.068;12.116;2023-03-04T10:45:47;7.88;88.73
584;HTU21D;27024;54.068;12.116;2023-03-04T10:48:26;8.16;88.32
584;HTU21D;27024;54.068;12.116;2023-03-04T10:51:08;7.78;87.56
584;HTU21D;27024;54.068;12.116;2023-03-04T10:53:38;7.59;88.60
584;HTU21D;27024;54.068;12.116;2023-03-04T10:56:29;7.38;89.50
584;HTU21D;27024;54.068;12.116;2023-03-04T11:07:48;7.79;89.43
584;HTU21D;27024;54.068;12.116;2023-03-04T11:10:41;8.26;86.07
584;HTU21D;27024;54.068;12.116;2023-03-04T11:18:31;8.49;85.12
584;HTU21D;27024;54.068;12.116;2023-03-04T11:21:00;8.48;84.56
584;HTU21D;27024;54.068;12.116;2023-03-04T11:26:13;7.63;88.67
584;HTU21D;27024;54.068;12.116;2023-03-04T11:28:51;7.29;91.42
584;HTU21D;27024;54.068;12.116;2023-03-04T11:31:38;7.39;90.40
584;HTU21D;27024;54.068;12.116;2023-03-04T11:34:31;7.15;92.34
584;HTU21D;27024;54.068;12.116;2023-03-04T11:37:07;7.19;93.04
584;HTU21D;27024;54.068;12.116;2023-03-04T11:39:38;7.08;93.14
584;HTU21D;27024;54.068;12.116;2023-03-04T11:44:49;7.20;92.47
584;HTU21D;27024;54.068;12.116;2023-03-04T11:50:16;7.39;92.51
584;HTU21D;27024;54.068;12.116;2023-03-04T12:12:37;7.23;94.14
584;HTU21D;27024;54.068;12.116;2023-03-04T12:27:00;8.27;81.68
584;HTU21D;27024;54.068;12.116;2023-03-04T12:32:14;8.07;82.68
584;HTU21D;27024;54.068;12.116;2023-03-04T12:40:49;7.77;86.91
584;HTU21D;27024;54.068;12.116;2023-03-04T12:51:53;6.93;87.70
584;HTU21D;27024;54.068;12.116;2023-03-04T12:57:18;6.98;88.77
584;HTU21D;27024;54.068;12.116;2023-03-04T13:11:32;8.29;76.86
584;HTU21D;27024;54.068;12.116;2023-03-04T13:16:47;8.21;76.25
584;HTU21D;27024;54.068;12.116;2023-03-04T13:22:00;9.29;59.42
584;HTU21D;27024;54.068;12.116;2023-03-04T13:24:47;9.06;51.53
584;HTU21D;27024;54.068;12.116;2023-03-04T13:27:43;8.83;46.46
584;HTU21D;27024;54.068;12.116;2023-03-04T13:41:21;9.96;40.90
584;HTU21D;27024;54.068;12.116;2023-03-04T13:59:10;10.56;40.07
584;HTU21D;27024;54.068;12.116;2023-03-04T14:04:21;10.95;39.15
584;HTU21D;27024;54.068;12.116;2023-03-04T14:06:50;11.10;38.53
584;HTU21D;27024;54.068;12.116;2023-03-04T14:09:32;10.88;38.64
584;HTU21D;27024;54.068;12.116;2023-03-04T14:12:02;10.72;37.19
584;HTU21D;27024;54.068;12.116;2023-03-04T14:17:30;10.10;38.69
584;HTU21D;27024;54.068;12.116;2023-03-04T14:19:59;9.70;38.93
584;HTU21D;27024;54.068;12.116;2023-03-04T14:23:00;10.08;38.81
584;HTU21D;27024;54.068;12.116;2023-03-04T14:25:23;10.08;38.75
584;HTU21D;27024;54.068;12.116;2023-03-04T14:28:03;9.97;40.36
584;HTU21D;27024;54.068;12.116;2023-03-04T14:30:31;10.49;40.46
584;HTU21D;27024;54.068;12.116;2023-03-04T14:33:14;10.88;38.41
584;HTU21D;27024;54.068;12.116;2023-03-04T14:35:46;11.12;36.41
584;HTU21D;27024;54.068;12.116;2023-03-04T14:38:33;11.26;36.55
584;HTU21D;27024;54.068;12.116;2023-03-04T14:41:08;11.47;35.24
584;HTU21D;27024;54.068;12.116;2023-03-04T14:44:02;11.54;36.79
584;HTU21D;27024;54.068;12.116;2023-03-04T14:46:35;11.45;36.53
584;HTU21D;27024;54.068;12.116;2023-03-04T14:49:06;12.08;38.71
584;HTU21D;27024;54.068;12.116;2023-03-04T14:56:57;11.38;36.72
584;HTU21D;27024;54.068;12.116;2023-03-04T14:59:32;10.89;37.52
584;HTU21D;27024;54.068;12.116;2023-03-04T15:02:23;10.65;39.11
584;HTU21D;27024;54.068;12.116;2023-03-04T15:05:06;10.48;38.69
584;HTU21D;27024;54.068;12.116;2023-03-04T15:07:43;10.22;38.69
584;HTU21D;27024;54.068;12.116;2023-03-04T15:10:20;9.83;39.90
584;HTU21D;27024;54.068;12.116;2023-03-04T15:12:56;9.27;40.46
584;HTU21D;27024;54.068;12.116;2023-03-04T15:20:51;8.08;43.71
584;HTU21D;27024;54.068;12.116;2023-03-04T15:23:18;7.81;43.51
584;HTU21D;27024;54.068;12.116;2023-03-04T15:25:45;7.77;47.51
584;HTU21D;27024;54.068;12.116;2023-03-04T15:28:17;7.32;45.86
584;HTU21D;27024;54.068;12.116;2023-03-04T15:30:44;7.15;45.68
584;HTU21D;27024;54.068;12.116;2023-03-04T15:33:12;6.99;45.23
584;HTU21D;27024;54.068;12.116;2023-03-04T15:35:40;6.89;44.25
584;HTU21D;27024;54.068;12.116;2023-03-04T15:38:11;6.55;45.37
584;HTU21D;27024;54.068;12.116;2023-03-04T15:40:39;6.24;46.54
584;HTU21D;27024;54.068;12.116;2023-03-04T15:43:13;6.14;46.19
584;HTU21D;27024;54.068;12.116;2023-03-04T15:45:40;6.05;47.87
584;HTU21D;27024;54.068;12.116;2023-03-04T15:48:10;6.05;47.45
584;HTU21D;27024;54.068;12.116;2023-03-04T15:50:43;5.94;48.21
584;HTU21D;27024;54.068;12.116;2023-03-04T15:55:47;5.65;50.45
584;HTU21D;27024;54.068;12.116;2023-03-04T15:58:14;5.57;50.87
584;HTU21D;27024;54.068;12.116;2023-03-04T16:00:41;5.59;50.53
584;HTU21D;27024;54.068;12.116;2023-03-04T16:03:16;5.47;51.59
584;HTU21D;27024;54.068;12.116;2023-03-04T16:05:45;5.46;52.52
584;HTU21D;27024;54.068;12.116;2023-03-04T16:08:15;5.40;51.66
584;HTU21D;27024;54.068;12.116;2023-03-04T16:10:43;5.49;52.24
584;HTU21D;27024;54.068;12.116;2023-03-04T16:13:14;5.43;53.31
584;HTU21D;27024;54.068;12.116;2023-03-04T16:15:41;5.40;54.48
584;HTU21D;27024;54.068;12.116;2023-03-04T16:18:13;5.31;54.03
584;HTU21D;27024;54.068;12.116;2023-03-04T16:20:43;5.20;54.02
584;HTU21D;27024;54.068;12.116;2023-03-04T16:23:20;5.27;53.54
584;HTU21D;27024;54.068;12.116;2023-03-04T16:25:49;5.24;55.20
584;HTU21D;27024;54.068;12.116;2023-03-04T16:28:16;5.24;57.51
584;HTU21D;27024;54.068;12.116;2023-03-04T16:30:43;5.19;57.74
584;HTU21D;27024;54.068;12.116;2023-03-04T16:33:10;5.15;57.35
584;HTU21D;27024;54.068;12.116;2023-03-04T16:35:38;5.23;56.80
584;HTU21D;27024;54.068;12.116;2023-03-04T16:38:30;5.23;59.62
584;HTU21D;27024;54.068;12.116;2023-03-04T16:41:00;5.04;58.48
584;HTU21D;27024;54.068;12.116;2023-03-04T16:43:30;5.10;58.64
584;HTU21D;27024;54.068;12.116;2023-03-04T16:45:56;5.12;58.23
584;HTU21D;27024;54.068;12.116;2023-03-04T16:48:23;5.07;59.27
584;HTU21D;27024;54.068;12.116;2023-03-04T16:50:51;5.07;59.20
584;HTU21D;27024;54.068;12.116;2023-03-04T16:53:26;5.09;62.14
584;HTU21D;27024;54.068;12.116;2023-03-04T16:55:54;4.93;62.14
584;HTU21D;27024;54.068;12.116;2023-03-04T16:58:23;4.87;61.32
584;HTU21D;27024;54.068;12.116;2023-03-04T17:00:49;4.97;63.11
584;HTU21D;27024;54.068;12.116;2023-03-04T17:03:16;4.94;60.41
584;HTU21D;27024;54.068;12.116;2023-03-04T17:05:43;4.93;61.93
584;HTU21D;27024;54.068;12.116;2023-03-04T17:08:10;4.82;64.37
584;HTU21D;27024;54.068;12.116;2023-03-04T17:10:37;4.69;64.54
584;HTU21D;27024;54.068;12.116;2023-03-04T17:13:04;4.60;66.65
584;HTU21D;27024;54.068;12.116;2023-03-04T17:15:31;4.56;66.57
584;HTU21D;27024;54.068;12.116;2023-03-04T17:17:58;4.54;67.02
584;HTU21D;27024;54.068;12.116;2023-03-04T17:20:25;4.50;67.27
584;HTU21D;27024;54.068;12.116;2023-03-04T17:22:52;4.57;68.70
584;HTU21D;27024;54.068;12.116;2023-03-04T17:25:19;4.57;67.55
584;HTU21D;27024;54.068;12.116;2023-03-04T17:27:45;4.51;68.43
584;HTU21D;27024;54.068;12.116;2023-03-04T17:30:12;4.51;67.72
584;HTU21D;27024;54.068;12.116;2023-03-04T17:32:39;4.52;67.39
584;HTU21D;27024;54.068;12.116;2023-03-04T17:35:07;4.46;68.99
584;HTU21D;27024;54.068;12.116;2023-03-04T17:37:35;4.46;68.15
584;HTU21D;27024;54.068;12.116;2023-03-04T17:40:07;4.42;69.08
584;HTU21D;27024;54.068;12.116;2023-03-04T17:42:34;4.37;68.69
584;HTU21D;27024;54.068;12.116;2023-03-04T17:45:01;4.41;69.61
584;HTU21D;27024;54.068;12.116;2023-03-04T17:47:27;4.23;74.26
584;HTU21D;27024;54.068;12.116;2023-03-04T17:49:54;4.31;71.19
584;HTU21D;27024;54.068;12.116;2023-03-04T17:52:21;4.32;70.15
584;HTU21D;27024;54.068;12.116;2023-03-04T17:54:47;4.26;70.64
584;HTU21D;27024;54.068;12.116;2023-03-04T17:57:15;4.24;72.35
584;HTU21D;27024;54.068;12.116;2023-03-04T17:59:41;4.22;72.50
584;HTU21D;27024;54.068;12.116;2023-03-04T18:02:13;4.18;73.65
584;HTU21D;27024;54.068;12.116;2023-03-04T18:04:41;4.10;74.84
584;HTU21D;27024;54.068;12.116;2023-03-04T18:07:08;4.14;73.68
584;HTU21D;27024;54.068;12.116;2023-03-04T18:09:35;4.18;74.49
584;HTU21D;27024;54.068;12.116;2023-03-04T18:12:02;4.18;73.31
584;HTU21D;27024;54.068;12.116;2023-03-04T18:14:28;4.18;73.61
584;HTU21D;27024;54.068;12.116;2023-03-04T18:16:55;4.10;75.17
584;HTU21D;27024;54.068;12.116;2023-03-04T18:19:22;4.08;74.03